カンザスシティ の空港の天気 - METARとTAF

カンザスシティ国際空港 ( KMCI / MCI ) - アメリカ ミズーリ州カンザスシティ
飛行場実況気象(Metar)
観測時間09/24 19:53 CDT (09/25 00:53 UTC)
風向・風速北北西 4m/s
視程10km以上
天気現象
全天の4割程度の雲 雲底高度 2440m
全天を覆う雲 雲底高度 3350m
気温18.9℃
湿度63%
気圧1016.9hPa
METARKMCI 250053Z 33008KT 10SM SCT080 OVC110 19/12 A3005 RMK AO2 SLP169 T01890117
過去の天気等 Google飛行場航空写真 Wunderground天気予報

過去48時間のMETAR

飛行場予報(TAF)
発表時間: 9/24 18:31 CDT (9/24 23:31 UTC)
予報対象時間: 24日19時 CDT ~ 25日19時 CDT
風向・風速北西 4m/s
視程10km以上
全天を覆う雲 雲底高度 3660m
25日0時 CDT から
風向・風速不定 3m/s
視程10km以上
少しの雲 雲底高度 7620m
25日15時 CDT から
風向・風速西南西 3m/s
視程10km以上
なし
KMCI 242331Z 2500/2524 32008KT P6SM OVC120
FM250500 VRB05KT P6SM FEW250
FM252000 25005KT P6SM SKC